Meteo Giornale » Osservazioni meteo Italia » Pratica Di Mare

ore: 00:55 - Osservazioni Meteo Pratica Di Mare
Lat. 41° 39' N Lon. 12° 27' E Alt. 6 metri s.l.m.

nuvoloso Europe/Rome

17 °C

Nuvoloso

Temp. 24 Ore

11 °C

21 °C

Sud/Sud-Est

18.5 Km/h

Dew point 11 °C

Umidità 67 %

Visibilità  10 Km

Il sole sorge alle ore 06:09

Il sole tramonta alle ore 20:05

Data e Ora Cielo e Fenomeni T °C DP °C Um. % Pres. hPa Vis. km Vento km/h
Oggi h: 00:55 nuvoloso Nuvoloso 17 11 67 1012 10 S/SE 18.5
Ieri h: 23:55 molto_nuvoloso Molto Nuvoloso 17 12 72 1012 10 E/SE 24
Ieri h: 22:55 nuvoloso Nuvoloso 17 12 72 1013 10 E/SE 24
Ieri h: 21:55 nuvoloso Nuvoloso 17 11 67 1013 10 E/SE 20.3
Ieri h: 20:55 nuvoloso Nuvoloso 17 11 67 1012 10 E/SE 20.3
Ieri h: 19:55 nuvoloso Nuvoloso 18 10 59 1012 10 S/SE 25.9
Ieri h: 18:55 poco_nuvoloso Poco Nuvoloso 19 10 55 1012 10 SE 25.9
Ieri h: 17:55 nuvoloso Nuvoloso 20 9 49 1012 10 SE 29.6
Ieri h: 16:55 nuvoloso Nuvoloso 21 10 49 1012 10 SE 31.5
Ieri h: 15:55 molto_nuvoloso Molto Nuvoloso 21 9 46 1012 10 SE 29.6
Ieri h: 14:55 nuvoloso Nuvoloso 21 12 56 1013 10 SE 33.3
Ieri h: 13:55 nuvoloso Nuvoloso 20 13 64 1013 10 S/SE 38.8
Ieri h: 12:55 molto_nuvoloso Molto Nuvoloso 20 12 59 1013 10 S/SE 35.2
Ieri h: 11:55 molto_nuvoloso Molto Nuvoloso 19 11 59 1013 10 S/SE 37
Ieri h: 09:55 molto_nuvoloso Molto Nuvoloso 18 12 67 1013 10 SE 27.8
Ieri h: 08:55 nuvoloso Nuvoloso 16 10 67 1013 10 SO 27.8
Ieri h: 07:55 nuvoloso Nuvoloso 15 8 62 1013 10 SE 25.9
Ieri h: 06:55 nuvoloso Nuvoloso 13 8 71 1013 10 E/SE 22.2
Ieri h: 05:55 poco_nuvoloso Poco Nuvoloso 12 8 76 1013 10 SE 18.5
Ieri h: 04:55 sereno Sereno 11 4 61 1013 10 S/SE 11.1
Ieri h: 03:55 sereno Sereno 12 5 62 1013 10 S 13
Ieri h: 02:55 sereno Sereno 13 5 58 1014 10 SO 14.8
Ieri h: 01:55 sereno Sereno 14 7 62 1015 10 E 14.8